Time;durP1;ratioP1;P1;durP2;ratioP2;P2;SDS_P1;SDS_P2;PMS_P1;PMS_P2;Temp;Humidity;BMP_temperature;BMP_pressure;BME280_temperature;BME280_humidity;BME280_pressure;Samples;Min_cycle;Max_cycle;Signal;HPM_P1;HPM_P2
2022/10/21 00:00:40;;;;;;;7.53;4.72;;;;;;;4.81;69.94;99910.78;5104495;28;20019;-65
2022/10/21 00:03:06;;;;;;;7.28;5.70;;;;;;;4.71;69.52;99901.31;5093567;28;20036;-66
2022/10/21 00:05:32;;;;;;;5.35;4.30;;;;;;;4.70;69.03;99897.03;5094925;28;20024;-66
2022/10/21 00:07:57;;;;;;;6.57;5.55;;;;;;;4.69;69.14;99892.78;5103007;28;20032;-66
2022/10/21 00:10:23;;;;;;;7.95;5.05;;;;;;;4.72;69.45;99900.47;5086725;28;20025;-65
2022/10/21 00:12:49;;;;;;;7.93;5.60;;;;;;;4.68;70.24;99900.47;5105667;28;20024;-65
2022/10/21 00:15:14;;;;;;;7.75;5.80;;;;;;;4.66;70.57;99893.59;5091082;28;20091;-64
2022/10/21 00:17:42;;;;;;;15.27;5.97;;;;;;;4.69;69.55;99892.78;5086161;28;20074;-64
2022/10/21 00:20:10;;;;;;;6.93;5.30;;;;;;;4.79;70.01;99891.13;5091387;28;20103;-65
2022/10/21 00:22:35;;;;;;;7.00;5.80;;;;;;;4.78;69.72;99889.41;5101884;28;20024;-63
2022/10/21 00:25:02;;;;;;;7.30;5.70;;;;;;;4.69;70.72;99897.03;5106611;28;20027;-65
2022/10/21 00:27:29;;;;;;;7.28;5.40;;;;;;;4.69;70.51;99879.94;5089440;28;20024;-65
2022/10/21 00:29:55;;;;;;;7.57;5.68;;;;;;;4.79;69.93;99875.72;5097894;28;20033;-64
2022/10/21 00:32:21;;;;;;;6.25;5.03;;;;;;;4.87;69.92;99871.47;5097782;28;20160;-65
2022/10/21 00:34:47;;;;;;;6.78;4.97;;;;;;;4.90;69.99;99868.91;5104058;28;20091;-64
2022/10/21 00:37:14;;;;;;;6.75;4.88;;;;;;;4.92;69.83;99867.22;5085917;28;20055;-65
2022/10/21 00:39:40;;;;;;;5.43;4.93;;;;;;;4.95;69.71;99867.22;5103540;28;20217;-65
2022/10/21 00:42:09;;;;;;;6.05;5.45;;;;;;;4.93;70.88;99861.25;5093372;28;20025;-65
2022/10/21 00:44:36;;;;;;;5.53;4.85;;;;;;;4.95;70.31;99864.66;5094332;28;20027;-65
2022/10/21 00:47:08;;;;;;;6.95;5.15;;;;;;;4.88;70.36;99844.13;5102025;28;20217;-66
2022/10/21 00:49:42;;;;;;;6.03;4.60;;;;;;;4.84;70.61;99832.97;5085677;28;20063;-65
2022/10/21 00:52:17;;;;;;;5.30;4.47;;;;;;;4.90;70.01;99837.28;5106283;28;20024;-66
2022/10/21 00:54:43;;;;;;;6.22;5.20;;;;;;;5.01;69.91;99851.00;5087910;28;20028;-65
2022/10/21 00:57:10;;;;;;;7.57;4.97;;;;;;;4.89;70.23;99843.25;5097478;28;20023;-64
2022/10/21 00:59:41;;;;;;;5.25;4.78;;;;;;;4.75;70.88;99841.50;5097273;28;20033;-65
2022/10/21 01:02:07;;;;;;;4.82;4.28;;;;;;;4.81;71.17;99843.22;5089070;28;20032;-65
2022/10/21 01:04:32;;;;;;;6.65;5.18;;;;;;;4.88;70.56;99854.38;5101812;28;20196;-64
2022/10/21 01:06:59;;;;;;;5.18;4.50;;;;;;;4.74;71.30;99851.75;5105376;28;20035;-65
2022/10/21 01:09:25;;;;;;;9.32;5.78;;;;;;;4.80;71.89;99864.59;5090373;28;20047;-64
2022/10/21 01:11:51;;;;;;;5.55;4.72;;;;;;;4.87;70.72;99862.91;5095656;28;20312;-65
2022/10/21 01:14:43;;;;;;;7.07;4.97;;;;;;;4.81;70.96;99861.19;5099779;28;20104;-65
2022/10/21 01:17:45;;;;;;;6.60;4.35;;;;;;;4.73;71.37;99862.84;5079254;28;20055;-65
2022/10/21 01:20:24;;;;;;;6.80;5.53;;;;;;;4.79;71.15;99875.72;5090294;28;20108;-64
2022/10/21 01:23:18;;;;;;;5.20;4.22;;;;;;;4.67;71.46;99861.09;5099889;28;20047;-65
2022/10/21 01:26:05;;;;;;;4.75;4.07;;;;;;;4.76;71.76;99866.31;5067871;28;20040;-65
2022/10/21 01:28:52;;;;;;;6.45;4.20;;;;;;;4.60;71.96;99849.09;5084960;28;20024;-64
2022/10/21 01:31:37;;;;;;;4.85;4.43;;;;;;;4.43;73.04;99870.38;5084863;28;20033;-64
2022/10/21 01:34:26;;;;;;;6.90;4.43;;;;;;;4.55;72.83;99867.03;5099009;28;20031;-64
2022/10/21 01:37:23;;;;;;;6.05;4.13;;;;;;;4.48;73.39;99865.28;5084847;28;20044;-64
2022/10/21 01:40:01;;;;;;;6.68;4.72;;;;;;;4.68;73.59;99867.13;5101819;28;20055;-64
2022/10/21 01:42:35;;;;;;;3.80;3.50;;;;;;;4.59;73.53;99865.31;5089659;28;20073;-64
2022/10/21 01:45:09;;;;;;;5.10;3.40;;;;;;;4.65;73.30;99868.78;5094968;28;20315;-65
2022/10/21 01:47:52;;;;;;;3.35;3.00;;;;;;;4.54;73.21;99861.91;5099470;28;20036;-64
2022/10/21 01:50:32;;;;;;;7.53;3.45;;;;;;;4.45;74.33;99872.97;5089833;28;20031;-65
2022/10/21 01:53:03;;;;;;;3.65;3.35;;;;;;;4.60;73.51;99864.50;5085691;28;20024;-64
2022/10/21 01:55:31;;;;;;;3.88;3.22;;;;;;;4.47;74.40;99866.97;5116380;28;20046;-64
2022/10/21 01:58:04;;;;;;;4.45;3.60;;;;;;;4.42;74.70;99866.09;5085581;28;20085;-64
2022/10/21 02:00:32;;;;;;;4.63;3.40;;;;;;;4.53;74.03;99866.16;5084499;28;20028;-64
2022/10/21 02:03:03;;;;;;;4.53;3.35;;;;;;;4.45;74.57;99858.41;5094129;28;20100;-65
2022/10/21 02:05:33;;;;;;;4.57;3.47;;;;;;;4.55;74.20;99848.22;5094440;28;20032;-67
2022/10/21 02:07:58;;;;;;;3.72;3.22;;;;;;;4.57;73.49;99839.69;5090292;28;20066;-67
2022/10/21 02:10:29;;;;;;;3.67;3.35;;;;;;;4.65;73.62;99842.31;5095257;28;20024;-66
2022/10/21 02:12:58;;;;;;;6.60;3.60;;;;;;;4.71;73.87;99856.88;5093011;28;20372;-66
2022/10/21 02:15:45;;;;;;;3.58;3.03;;;;;;;4.74;73.51;99855.16;5092475;28;20392;-66
2022/10/21 02:18:23;;;;;;;3.47;3.13;;;;;;;4.79;73.77;99860.34;5094787;28;20138;-66
2022/10/21 02:20:55;;;;;;;3.63;3.33;;;;;;;4.76;73.29;99847.47;5094114;28;20019;-67
2022/10/21 02:23:28;;;;;;;3.65;2.97;;;;;;;4.64;74.65;99850.84;5093851;28;20024;-66
2022/10/21 02:25:54;;;;;;;4.38;3.00;;;;;;;4.85;74.20;99870.63;5094599;28;20236;-67
2022/10/21 02:28:20;;;;;;;4.45;2.70;;;;;;;4.78;74.29;99874.84;5093223;28;20028;-67
2022/10/21 02:31:01;;;;;;;3.60;3.05;;;;;;;4.75;75.08;99874.84;5093450;28;20017;-67
2022/10/21 02:33:42;;;;;;;4.60;3.13;;;;;;;4.64;74.94;99858.53;5099836;28;20028;-67
2022/10/21 02:36:14;;;;;;;3.40;3.00;;;;;;;4.67;75.52;99886.75;5102331;28;20325;-66
2022/10/21 02:38:57;;;;;;;4.35;2.90;;;;;;;4.63;74.44;99865.38;5095478;28;20142;-65
2022/10/21 02:41:26;;;;;;;3.28;2.97;;;;;;;4.71;74.41;99898.75;5089111;28;20035;-65
2022/10/21 02:44:02;;;;;;;3.05;2.75;;;;;;;4.66;74.78;99883.34;5102230;28;20032;-65
2022/10/21 02:46:36;;;;;;;3.55;2.80;;;;;;;4.73;74.08;99886.81;5084410;28;20035;-67
2022/10/21 02:49:03;;;;;;;4.20;2.90;;;;;;;4.71;74.75;99874.81;5102054;28;20030;-67
2022/10/21 02:51:29;;;;;;;4.18;3.20;;;;;;;4.74;74.34;99877.41;5087472;28;20091;-67
2022/10/21 02:53:54;;;;;;;4.50;2.67;;;;;;;4.76;74.73;99881.69;5093697;28;20381;-67
2022/10/21 02:56:20;;;;;;;3.58;3.13;;;;;;;4.81;74.36;99869.72;5098418;28;20091;-67
2022/10/21 02:58:45;;;;;;;3.80;3.35;;;;;;;4.73;75.16;99878.25;5083887;28;20020;-66
2022/10/21 03:01:11;;;;;;;5.28;3.03;;;;;;;4.73;75.29;99871.41;5103515;28;20046;-66
2022/10/21 03:03:37;;;;;;;6.05;3.33;;;;;;;4.77;74.95;99865.44;5087699;28;20293;-66
2022/10/21 03:06:02;;;;;;;4.25;3.33;;;;;;;4.76;75.59;99865.41;5094221;28;20250;-67
2022/10/21 03:08:28;;;;;;;4.00;3.13;;;;;;;4.61;75.57;99856.78;5099452;28;20025;-66
2022/10/21 03:10:53;;;;;;;4.10;3.13;;;;;;;4.75;75.16;99864.56;5093868;28;20032;-66
2022/10/21 03:13:20;;;;;;;3.25;2.95;;;;;;;4.74;75.95;99869.69;5092594;28;20213;-67
2022/10/21 03:15:50;;;;;;;3.72;3.03;;;;;;;4.82;75.81;99876.59;5078778;28;20028;-66
2022/10/21 03:18:16;;;;;;;3.33;3.03;;;;;;;4.90;75.68;99878.31;5091887;28;20024;-66
2022/10/21 03:20:41;;;;;;;4.35;3.45;;;;;;;4.78;75.14;99856.03;5094544;28;20303;-66
2022/10/21 03:23:07;;;;;;;5.18;3.10;;;;;;;4.93;75.39;99876.66;5094741;28;20020;-66
2022/10/21 03:25:33;;;;;;;3.60;3.30;;;;;;;4.83;75.16;99872.31;5095739;28;20178;-66
2022/10/21 03:27:58;;;;;;;3.80;2.97;;;;;;;4.88;74.79;99855.22;5098896;28;20328;-67
2022/10/21 03:30:24;;;;;;;2.92;2.72;;;;;;;4.92;75.24;99867.22;5095555;28;20051;-67
2022/10/21 03:32:50;;;;;;;4.57;3.25;;;;;;;4.91;75.17;99862.09;5079630;28;20236;-66
2022/10/21 03:35:15;;;;;;;7.00;3.20;;;;;;;4.91;74.92;99859.53;5094574;28;20115;-67
2022/10/21 03:37:41;;;;;;;4.65;3.25;;;;;;;4.93;75.43;99873.22;5098460;28;20033;-67
2022/10/21 03:40:07;;;;;;;3.92;3.28;;;;;;;4.93;75.18;99868.94;5095919;28;20047;-66
2022/10/21 03:42:33;;;;;;;3.03;2.60;;;;;;;4.93;74.85;99865.50;5095061;28;20274;-66
2022/10/21 03:44:59;;;;;;;5.00;3.10;;;;;;;5.02;74.83;99883.53;5097216;28;20024;-66
2022/10/21 03:47:25;;;;;;;4.95;3.97;;;;;;;5.01;75.06;99886.94;5096645;28;20031;-66
2022/10/21 03:49:50;;;;;;;6.18;3.00;;;;;;;5.01;75.42;99887.78;5094269;28;20028;-66
2022/10/21 03:52:16;;;;;;;3.45;3.15;;;;;;;4.97;75.96;99885.19;5097375;28;20259;-67
2022/10/21 03:54:41;;;;;;;3.67;3.05;;;;;;;4.90;75.17;99880.91;5095937;28;20039;-66
2022/10/21 03:57:07;;;;;;;5.07;3.30;;;;;;;4.90;75.50;99863.78;5095194;28;20035;-67
2022/10/21 03:59:33;;;;;;;7.20;3.25;;;;;;;5.05;74.97;99887.81;5095513;28;20028;-66
2022/10/21 04:01:58;;;;;;;6.95;3.03;;;;;;;4.99;75.49;99883.53;5091775;28;20025;-66
2022/10/21 04:04:24;;;;;;;3.13;2.83;;;;;;;5.00;75.56;99882.66;5086730;28;20032;-65
2022/10/21 04:06:50;;;;;;;4.43;3.30;;;;;;;4.98;75.67;99877.50;5102569;28;20300;-66
2022/10/21 04:09:15;;;;;;;3.25;2.95;;;;;;;4.99;75.47;99878.38;5091572;28;20066;-66
2022/10/21 04:11:41;;;;;;;5.65;3.45;;;;;;;5.02;75.61;99888.66;5099105;28;20047;-66
2022/10/21 04:14:07;;;;;;;3.30;3.00;;;;;;;5.08;75.49;99882.69;5088954;28;21566;-66
2022/10/21 04:16:33;;;;;;;3.83;3.08;;;;;;;5.02;76.45;99891.22;5106801;28;20047;-66
2022/10/21 04:18:59;;;;;;;4.78;3.35;;;;;;;4.96;75.91;99891.19;5088050;28;20032;-65
2022/10/21 04:21:24;;;;;;;5.97;3.30;;;;;;;5.00;76.21;99887.78;5080996;28;20062;-65
2022/10/21 04:23:50;;;;;;;4.50;3.35;;;;;;;4.93;76.72;99892.03;5097634;28;20032;-66
2022/10/21 04:26:16;;;;;;;6.40;3.92;;;;;;;4.89;76.73;99890.31;5093717;28;20021;-66
2022/10/21 04:28:41;;;;;;;4.05;3.47;;;;;;;4.89;76.21;99887.75;5097133;28;20123;-66
2022/10/21 04:31:07;;;;;;;5.13;3.20;;;;;;;4.98;77.29;99892.91;5098544;28;20320;-67
2022/10/21 04:33:33;;;;;;;6.57;3.47;;;;;;;4.95;77.37;99903.16;5097654;28;20035;-68
2022/10/21 04:35:58;;;;;;;8.10;3.80;;;;;;;4.83;77.33;99892.81;5094264;28;20052;-68
2022/10/21 04:38:25;;;;;;;6.40;3.42;;;;;;;4.68;77.33;99867.97;5094368;28;20042;-68
2022/10/21 04:40:58;;;;;;;9.38;3.80;;;;;;;4.83;77.33;99887.69;5095895;28;20036;-68
2022/10/21 04:43:25;;;;;;;6.40;3.10;;;;;;;4.84;77.90;99902.25;5102399;28;20028;-68
2022/10/21 04:45:50;;;;;;;5.18;3.30;;;;;;;4.77;77.67;99900.50;5092853;28;20096;-68
2022/10/21 04:48:16;;;;;;;7.95;3.65;;;;;;;4.84;77.18;99894.56;5095114;28;20032;-69
2022/10/21 04:50:41;;;;;;;3.92;3.30;;;;;;;4.84;76.87;99886.84;5094868;28;20024;-68
2022/10/21 04:53:07;;;;;;;5.85;3.60;;;;;;;4.90;77.51;99884.31;5094541;28;20381;-68
2022/10/21 04:55:33;;;;;;;4.22;3.33;;;;;;;4.88;77.66;99895.44;5094570;28;20028;-67
2022/10/21 04:57:58;;;;;;;3.47;3.17;;;;;;;4.96;77.33;99897.19;5091913;28;20189;-67
2022/10/21 05:00:24;;;;;;;5.40;3.70;;;;;;;4.99;77.27;99888.66;5098142;28;20027;-67
2022/10/21 05:02:49;;;;;;;5.65;3.67;;;;;;;5.05;77.58;99903.22;5096994;28;20209;-66
2022/10/21 05:05:15;;;;;;;4.82;3.47;;;;;;;5.10;77.50;99907.53;5088518;28;20028;-67
2022/10/21 05:07:41;;;;;;;3.70;3.35;;;;;;;4.96;77.24;99894.63;5105515;28;20243;-67
2022/10/21 05:10:07;;;;;;;4.97;3.80;;;;;;;4.98;77.20;99900.59;5086691;28;20020;-68
2022/10/21 05:12:32;;;;;;;4.45;3.50;;;;;;;5.02;77.07;99901.50;5099396;28;20064;-67
2022/10/21 05:14:59;;;;;;;7.47;4.85;;;;;;;5.09;77.93;99899.78;5096039;28;20035;-68
2022/10/21 05:17:25;;;;;;;4.25;3.80;;;;;;;5.06;77.33;99899.78;5085181;28;20336;-67
2022/10/21 05:19:51;;;;;;;5.80;3.72;;;;;;;5.06;77.15;99897.22;5085248;28;20097;-67
2022/10/21 05:22:16;;;;;;;5.95;3.63;;;;;;;4.99;77.53;99902.34;5102948;28;20031;-68
2022/10/21 05:24:42;;;;;;;4.78;3.70;;;;;;;5.04;77.45;99897.22;5100241;28;20038;-67
2022/10/21 05:27:07;;;;;;;24.77;5.07;;;;;;;5.07;77.39;99888.66;5094651;28;20070;-67
2022/10/21 05:29:33;;;;;;;6.82;3.80;;;;;;;5.13;77.02;99892.13;5090723;28;20031;-68
2022/10/21 05:31:58;;;;;;;5.20;4.35;;;;;;;5.13;76.41;99904.97;5103965;28;20036;-67
2022/10/21 05:34:24;;;;;;;8.02;4.30;;;;;;;5.23;77.00;99908.44;5101839;28;20081;-68
2022/10/21 05:36:50;;;;;;;15.32;5.00;;;;;;;5.28;77.01;99911.84;5088585;28;20051;-68
2022/10/21 05:39:15;;;;;;;4.43;3.88;;;;;;;5.22;77.78;99918.69;5096003;28;20028;-68
2022/10/21 05:41:41;;;;;;;6.60;4.40;;;;;;;5.16;77.82;99916.97;5098071;28;20297;-67
2022/10/21 05:44:06;;;;;;;7.93;4.43;;;;;;;5.31;77.21;99926.44;5085429;28;20031;-67
2022/10/21 05:46:32;;;;;;;6.82;4.60;;;;;;;5.19;77.40;99929.81;5102346;28;20028;-67
2022/10/21 05:48:58;;;;;;;6.28;4.25;;;;;;;5.30;77.37;99930.72;5101411;28;20052;-66
2022/10/21 05:51:25;;;;;;;6.50;4.40;;;;;;;5.34;77.03;99937.59;5092059;28;20023;-67
2022/10/21 05:53:52;;;;;;;6.93;4.32;;;;;;;5.14;77.48;99934.06;5091996;28;20028;-67
2022/10/21 05:56:18;;;;;;;26.25;6.53;;;;;;;5.19;77.60;99927.25;5101197;28;20063;-68
2022/10/21 05:58:43;;;;;;;10.27;4.35;;;;;;;5.27;77.82;99928.13;5082966;28;20029;-67
2022/10/21 06:01:09;;;;;;;6.07;4.45;;;;;;;5.06;78.16;99923.75;5103164;28;20020;-67
2022/10/21 06:03:35;;;;;;;4.95;4.45;;;;;;;5.17;78.08;99934.94;5090498;28;20378;-68
2022/10/21 06:06:03;;;;;;;6.88;4.57;;;;;;;5.12;78.80;99926.34;5092142;28;20028;-67
2022/10/21 06:08:31;;;;;;;6.60;4.38;;;;;;;5.38;77.87;99935.88;5099644;28;20325;-67
2022/10/21 06:11:09;;;;;;;5.45;4.22;;;;;;;5.44;77.95;99947.88;5083235;28;20032;-67
2022/10/21 06:13:35;;;;;;;6.03;4.28;;;;;;;5.44;77.74;99930.75;5104673;28;20049;-68
2022/10/21 06:16:01;;;;;;;7.00;4.63;;;;;;;5.53;77.51;99935.94;5086640;28;20020;-67
2022/10/21 06:18:27;;;;;;;5.47;4.47;;;;;;;5.52;77.09;99941.91;5084097;28;20052;-67
2022/10/21 06:20:52;;;;;;;6.85;5.05;;;;;;;5.34;77.06;99942.72;5091694;28;20035;-67
2022/10/21 06:23:18;;;;;;;7.72;5.30;;;;;;;5.40;77.99;99952.16;5096234;28;20319;-67
2022/10/21 06:26:05;;;;;;;9.02;5.50;;;;;;;5.40;80.15;99962.44;5104355;28;20036;-67
2022/10/21 06:28:33;;;;;;;7.05;5.78;;;;;;;5.40;79.21;99958.97;5084026;28;20064;-67
2022/10/21 06:30:59;;;;;;;11.13;6.10;;;;;;;5.40;80.67;99956.41;5100609;28;20343;-67
2022/10/21 06:33:25;;;;;;;8.43;5.72;;;;;;;5.45;80.09;99949.59;5099973;28;20039;-68
2022/10/21 06:35:50;;;;;;;7.20;5.80;;;;;;;5.47;80.21;99959.03;5097463;28;20068;-67
2022/10/21 06:38:17;;;;;;;9.45;5.22;;;;;;;5.54;79.69;99957.31;5091606;28;20043;-67
2022/10/21 06:40:43;;;;;;;7.57;5.97;;;;;;;5.50;79.20;99953.03;5104467;28;20051;-68
2022/10/21 06:43:09;;;;;;;9.85;5.35;;;;;;;5.60;79.80;99933.38;5085504;28;20017;-68
2022/10/21 06:45:35;;;;;;;9.90;6.10;;;;;;;5.76;79.92;99934.25;5097134;28;20316;-67
2022/10/21 06:48:01;;;;;;;6.82;6.15;;;;;;;5.79;79.52;99939.44;5094552;28;20032;-68
2022/10/21 06:50:27;;;;;;;7.78;6.05;;;;;;;5.72;79.03;99943.69;5087691;28;20338;-68
2022/10/21 06:52:52;;;;;;;8.65;6.15;;;;;;;5.69;79.01;99941.97;5102729;28;20023;-68
2022/10/21 06:55:18;;;;;;;6.45;5.72;;;;;;;5.74;78.91;99938.53;5084223;28;20028;-68
2022/10/21 06:57:44;;;;;;;9.43;6.05;;;;;;;5.86;78.87;99936.84;5098967;28;20024;-67
2022/10/21 07:00:11;;;;;;;6.72;5.70;;;;;;;5.77;78.48;99941.13;5100029;28;20043;-68
2022/10/21 07:02:36;;;;;;;10.07;6.50;;;;;;;5.81;78.07;99946.25;5088235;28;20091;-67
2022/10/21 07:05:03;;;;;;;8.50;6.47;;;;;;;5.86;78.17;99928.31;5098598;28;20020;-69
2022/10/21 07:07:29;;;;;;;9.88;7.07;;;;;;;5.84;77.78;99928.31;5083141;28;20028;-68
2022/10/21 07:09:56;;;;;;;8.90;6.75;;;;;;;5.64;80.33;99929.94;5082860;28;20126;-68
2022/10/21 07:12:26;;;;;;;7.88;6.32;;;;;;;5.83;79.68;99928.31;5094746;28;20102;-68
2022/10/21 07:14:53;;;;;;;7.63;6.72;;;;;;;5.89;80.13;99923.16;5095498;28;20024;-68
2022/10/21 07:17:19;;;;;;;8.52;6.75;;;;;;;5.99;79.27;99930.06;5085473;28;20313;-67
2022/10/21 07:19:45;;;;;;;10.40;6.75;;;;;;;6.04;78.94;99933.50;5101968;28;20216;-68
2022/10/21 07:22:12;;;;;;;9.05;6.10;;;;;;;6.05;78.38;99919.75;5085861;28;20040;-69
2022/10/21 07:24:39;;;;;;;9.98;6.68;;;;;;;6.15;78.29;99935.22;5089159;28;20134;-68
2022/10/21 07:27:04;;;;;;;10.07;6.72;;;;;;;6.18;78.10;99937.78;5082757;28;20036;-67
2022/10/21 07:29:30;;;;;;;7.35;5.75;;;;;;;6.03;78.82;99923.22;5087076;28;20024;-67
2022/10/21 07:31:56;;;;;;;11.52;6.25;;;;;;;6.08;78.31;99928.34;5102681;28;20035;-68
2022/10/21 07:34:22;;;;;;;9.55;6.45;;;;;;;6.04;78.40;99925.78;5099894;28;20036;-68
2022/10/21 07:36:51;;;;;;;11.50;6.70;;;;;;;6.13;77.75;99929.19;5087728;28;20301;-68
2022/10/21 07:39:23;;;;;;;9.50;6.07;;;;;;;6.20;78.01;99926.66;5082608;28;20028;-67
2022/10/21 07:41:54;;;;;;;9.50;6.78;;;;;;;6.18;78.44;99936.06;5082787;28;20091;-67
2022/10/21 07:44:22;;;;;;;12.93;7.10;;;;;;;6.23;78.96;99936.09;5082857;28;20069;-67
2022/10/21 07:46:48;;;;;;;10.32;6.72;;;;;;;6.32;78.43;99945.50;5082727;28;20058;-68
2022/10/21 07:49:16;;;;;;;11.18;6.18;;;;;;;6.19;77.90;99921.50;5104369;28;20050;-68
2022/10/21 07:51:42;;;;;;;7.53;6.30;;;;;;;6.34;77.09;99939.53;5109183;28;20028;-67
2022/10/21 07:54:08;;;;;;;12.98;6.72;;;;;;;6.23;77.42;99943.81;5093573;28;20035;-67
2022/10/21 07:56:38;;;;;;;9.98;6.75;;;;;;;6.21;77.25;99935.22;5086929;28;20012;-67
2022/10/21 07:59:04;;;;;;;11.60;7.20;;;;;;;6.38;76.55;99948.94;5102871;28;20095;-67
2022/10/21 08:01:30;;;;;;;8.98;6.80;;;;;;;6.43;77.23;99951.50;5102011;28;20048;-68
2022/10/21 08:03:57;;;;;;;9.60;6.50;;;;;;;6.41;77.33;99945.50;5102606;28;20055;-68
2022/10/21 08:06:24;;;;;;;11.68;6.78;;;;;;;6.36;77.64;99955.78;5101417;28;20077;-68
2022/10/21 08:08:50;;;;;;;10.93;7.18;;;;;;;6.38;77.12;99964.38;5096037;28;20032;-68
2022/10/21 08:11:24;;;;;;;10.45;7.20;;;;;;;6.34;77.66;99960.09;5085598;28;20016;-68
2022/10/21 08:13:50;;;;;;;14.50;7.90;;;;;;;6.36;77.26;99952.38;5105435;28;20024;-69
2022/10/21 08:16:16;;;;;;;9.02;6.93;;;;;;;6.44;77.40;99957.50;5088103;28;20051;-68
2022/10/21 08:18:42;;;;;;;10.05;7.55;;;;;;;6.49;77.45;99953.22;5096072;28;20069;-68
2022/10/21 08:21:07;;;;;;;9.43;7.85;;;;;;;6.35;76.90;99953.22;5092743;28;20044;-68
2022/10/21 08:23:33;;;;;;;9.23;7.22;;;;;;;6.35;76.28;99954.06;5094710;28;20033;-67
2022/10/21 08:26:00;;;;;;;10.95;8.18;;;;;;;6.14;77.12;99954.06;5087698;28;20027;-68
2022/10/21 08:28:27;;;;;;;8.25;7.43;;;;;;;6.25;76.78;99954.94;5089989;28;20016;-67
2022/10/21 08:31:01;;;;;;;12.73;7.90;;;;;;;6.15;76.68;99924.94;5101014;28;20032;-67
2022/10/21 08:33:28;;;;;;;8.65;7.18;;;;;;;6.31;76.14;99954.91;5102318;28;20032;-68
2022/10/21 08:35:54;;;;;;;10.48;8.20;;;;;;;6.30;76.43;99948.09;5106156;28;20044;-68
2022/10/21 08:38:20;;;;;;;9.85;7.93;;;;;;;6.32;76.87;99930.09;5102861;28;20321;-68
2022/10/21 08:40:47;;;;;;;11.82;7.68;;;;;;;6.39;75.95;99934.38;5084344;28;20095;-68
2022/10/21 08:43:26;;;;;;;9.90;6.80;;;;;;;6.54;76.02;99936.06;5085797;28;20087;-67
2022/10/21 08:46:24;;;;;;;9.85;6.43;;;;;;;6.66;75.53;99938.63;5096502;28;20035;-68
2022/10/21 08:49:02;;;;;;;8.63;6.85;;;;;;;6.72;75.87;99945.47;5094636;28;20036;-68
2022/10/21 08:51:32;;;;;;;9.75;7.32;;;;;;;6.54;75.26;99923.19;5093955;28;20056;-67
2022/10/21 08:54:03;;;;;;;10.18;7.57;;;;;;;6.62;75.32;99931.75;5085360;28;20028;-67
2022/10/21 08:56:30;;;;;;;10.63;7.75;;;;;;;6.77;75.54;99927.44;5088462;28;20189;-67
2022/10/21 08:58:56;;;;;;;10.57;8.55;;;;;;;6.85;75.32;99930.88;5105514;28;20536;-68
2022/10/21 09:01:30;;;;;;;10.70;8.10;;;;;;;6.90;74.99;99919.69;5086199;28;20032;-67
2022/10/21 09:04:04;;;;;;;8.45;6.35;;;;;;;6.99;74.56;99936.84;5085134;28;20091;-69
2022/10/21 09:06:38;;;;;;;7.00;6.30;;;;;;;6.99;74.87;99933.41;5095663;28;20031;-67
2022/10/21 09:09:07;;;;;;;10.63;7.78;;;;;;;7.08;73.52;99930.78;5087318;28;20247;-67
2022/10/21 09:11:45;;;;;;;12.07;8.05;;;;;;;7.09;74.18;99935.09;5084962;28;20070;-68
2022/10/21 09:14:26;;;;;;;11.48;8.65;;;;;;;6.83;74.66;99937.75;5084858;28;20032;-68
2022/10/21 09:17:10;;;;;;;11.30;8.38;;;;;;;6.93;74.13;99934.28;5104712;28;20055;-68
2022/10/21 09:19:54;;;;;;;9.85;8.85;;;;;;;7.03;74.88;99943.69;5084980;28;20032;-68
2022/10/21 09:22:36;;;;;;;8.75;7.72;;;;;;;7.10;74.51;99936.81;5099521;28;20037;-68
2022/10/21 09:25:31;;;;;;;11.90;9.27;;;;;;;7.09;73.74;99940.25;5086806;28;20028;-68
2022/10/21 09:27:59;;;;;;;10.35;9.20;;;;;;;6.77;73.97;99930.03;5099240;28;20028;-68
2022/10/21 09:30:25;;;;;;;11.38;9.45;;;;;;;6.97;75.41;99932.53;5096142;28;20028;-67
2022/10/21 09:32:57;;;;;;;13.68;8.60;;;;;;;7.09;74.55;99928.22;5107950;28;20024;-66
2022/10/21 09:35:25;;;;;;;12.68;9.40;;;;;;;7.29;73.73;99927.28;5090095;28;20049;-68
2022/10/21 09:37:56;;;;;;;10.88;8.25;;;;;;;7.06;71.68;99943.69;5100106;28;20698;-68
2022/10/21 09:40:27;;;;;;;8.90;8.00;;;;;;;7.03;71.73;99946.28;5093779;28;20027;-67
2022/10/21 09:42:57;;;;;;;8.15;7.35;;;;;;;7.15;71.28;99954.81;5097117;28;20028;-67
2022/10/21 09:45:26;;;;;;;9.60;8.40;;;;;;;7.28;72.65;99946.19;5093375;28;20060;-68
2022/10/21 09:48:18;;;;;;;9.70;8.10;;;;;;;7.39;71.70;99947.00;5070270;28;20340;-68
2022/10/21 09:50:58;;;;;;;8.82;8.00;;;;;;;7.25;70.82;99931.63;5054442;28;20036;-68
2022/10/21 09:53:30;;;;;;;11.98;8.07;;;;;;;6.97;71.37;99924.81;5088776;28;20063;-68
2022/10/21 09:56:01;;;;;;;;;;;;;;;7.22;72.08;99946.22;5100108;28;20572;-67
2022/10/21 09:58:42;;;;;;;8.30;7.50;;;;;;;7.31;71.89;99935.00;5097942;28;19915;-67
2022/10/21 10:01:15;;;;;;;10.88;7.82;;;;;;;7.17;72.05;99917.03;5099402;28;20065;-68
2022/10/21 10:03:44;;;;;;;8.43;7.57;;;;;;;7.28;71.21;99928.16;5097198;28;20032;-69
2022/10/21 10:06:10;;;;;;;10.13;8.68;;;;;;;7.38;71.69;99928.97;5088025;28;20285;-67
2022/10/21 10:08:40;;;;;;;10.65;8.27;;;;;;;7.29;70.75;99937.59;5091389;28;20032;-68
2022/10/21 10:11:09;;;;;;;9.23;7.53;;;;;;;7.39;71.53;99943.56;5091888;28;20283;-68
2022/10/21 10:13:36;;;;;;;8.00;6.93;;;;;;;7.34;71.13;99940.16;5069754;28;20134;-68
2022/10/21 10:16:21;;;;;;;6.97;6.32;;;;;;;7.29;71.78;99932.44;5088736;28;20042;-67
2022/10/21 10:18:47;;;;;;;7.53;6.82;;;;;;;7.37;70.92;99927.28;5097061;28;20073;-67
2022/10/21 10:21:18;;;;;;;7.55;6.85;;;;;;;7.30;70.44;99917.88;5096832;28;20308;-68
2022/10/21 10:23:55;;;;;;;7.95;6.82;;;;;;;7.41;71.04;99924.69;5093582;28;20098;-68
2022/10/21 10:26:27;;;;;;;8.10;7.22;;;;;;;7.39;70.12;99928.97;5083554;28;20186;-69
2022/10/21 10:29:08;;;;;;;9.77;6.97;;;;;;;7.37;70.35;99899.78;5083592;28;20055;-68
2022/10/21 10:31:34;;;;;;;8.80;7.05;;;;;;;7.40;70.80;99920.38;5097763;28;20169;-68
2022/10/21 10:34:06;;;;;;;7.82;6.88;;;;;;;7.61;71.06;99913.41;5102021;28;20211;-68
2022/10/21 10:36:36;;;;;;;;;;;;;;;7.48;71.61;99914.31;5087948;28;20107;-68
2022/10/21 10:39:06;;;;;;;9.13;7.13;;;;;;;7.47;70.81;99920.34;5089155;28;19979;-68
2022/10/21 10:41:38;;;;;;;9.35;7.70;;;;;;;7.53;70.32;99920.31;5088141;28;20024;-69
2022/10/21 10:44:24;;;;;;;8.00;7.20;;;;;;;7.62;69.67;99909.94;5091906;28;20024;-68
2022/10/21 10:46:56;;;;;;;6.95;6.22;;;;;;;7.49;70.64;99882.53;5102039;28;20083;-68
2022/10/21 10:49:23;;;;;;;9.30;6.80;;;;;;;7.67;69.62;99917.69;5102969;28;20032;-68
2022/10/21 10:52:06;;;;;;;7.75;6.80;;;;;;;7.77;69.90;99909.03;5103495;28;20052;-67
2022/10/21 10:54:32;;;;;;;7.05;5.95;;;;;;;7.80;69.71;99900.41;5094573;28;20035;-68
2022/10/21 10:57:07;;;;;;;8.50;5.93;;;;;;;7.65;69.17;99907.34;5097401;28;20032;-69
2022/10/21 10:59:55;;;;;;;6.85;5.43;;;;;;;7.72;70.91;99901.28;5084993;28;20257;-68
2022/10/21 11:02:39;;;;;;;10.48;5.75;;;;;;;7.74;70.36;99897.00;5102330;28;20059;-68
2022/10/21 11:05:22;;;;;;;12.48;6.25;;;;;;;7.72;69.57;99892.72;5086662;28;20036;-68
2022/10/21 11:07:54;;;;;;;7.50;5.70;;;;;;;7.68;70.33;99873.84;5082909;28;20024;-67
2022/10/21 11:10:29;;;;;;;10.38;7.20;;;;;;;7.82;69.99;99896.94;5082789;28;20196;-71
2022/10/21 11:12:55;;;;;;;7.45;6.75;;;;;;;7.55;70.36;99892.81;5089333;28;20350;-68
2022/10/21 11:15:31;;;;;;;8.82;6.75;;;;;;;7.35;70.85;99886.03;5092486;28;20020;-68
2022/10/21 11:18:01;;;;;;;7.78;6.97;;;;;;;7.63;69.98;99890.22;5084422;28;20047;-68
2022/10/21 11:20:29;;;;;;;8.10;6.95;;;;;;;7.73;70.38;99895.28;5085466;28;20052;-67
2022/10/21 11:23:33;;;;;;;7.43;6.05;;;;;;;7.77;70.70;99898.72;5089113;28;20220;-68
2022/10/21 11:26:13;;;;;;;7.45;6.70;;;;;;;7.84;70.59;99905.53;5072281;28;20278;-68
2022/10/21 11:28:48;;;;;;;11.63;8.27;;;;;;;7.66;70.87;99895.34;5102939;28;20038;-66
2022/10/21 11:31:28;;;;;;;10.55;7.68;;;;;;;7.59;70.34;99890.19;5086924;28;20029;-66
2022/10/21 11:34:28;;;;;;;11.25;7.13;;;;;;;7.35;71.24;99883.47;5096373;28;20020;-66
2022/10/21 11:37:24;;;;;;;8.43;6.65;;;;;;;7.48;70.81;99873.97;5096527;28;20043;-66
2022/10/21 11:40:23;;;;;;;7.97;6.93;;;;;;;7.57;70.53;99881.63;5090010;28;20044;-66
2022/10/21 11:42:51;;;;;;;10.82;7.10;;;;;;;7.60;71.17;99884.19;5082695;28;20051;-66
2022/10/21 11:45:44;;;;;;;11.32;6.95;;;;;;;7.69;70.06;99875.53;5091455;28;20220;-66
2022/10/21 11:48:19;;;;;;;11.30;7.65;;;;;;;7.63;71.76;99865.28;5106145;28;20085;-66
2022/10/21 11:51:03;;;;;;;13.48;7.82;;;;;;;7.47;70.85;99864.53;5106883;28;20350;-67
2022/10/21 11:54:04;;;;;;;9.27;7.80;;;;;;;7.48;70.46;99855.06;5107123;28;20046;-67
2022/10/21 11:56:29;;;;;;;13.90;9.43;;;;;;;7.63;71.51;99870.44;5105197;28;20039;-67